Terminal Aerodrome Forecast
Issued by NWS Cheyenne, WY

Home | Current Version | Previous Version | Text Only | Print | Product List | Glossary On
Versions: 1 2 3 4 5 6 7 8 9 10 11 12 13
000
FTUS45 KCYS 060520
TAFCYS
TAF
KCYS 060520Z 0606/0706 18007KT P6SM SCT250
     FM061100 24005KT P6SM SCT200
     FM061800 33007KT P6SM VCSH BKN250
     FM062000 11010KT P6SM VCSH BKN200
     FM062300 09011KT P6SM VCTS SCT060CB OVC130=

USA.gov is the U.S. government's official web portal to all federal, state and local government web resources and services.